Time;durP1;ratioP1;P1;durP2;ratioP2;P2;SDS_P1;SDS_P2;PMS_P1;PMS_P2;Temp;Humidity;BMP_temperature;BMP_pressure;BME280_temperature;BME280_humidity;BME280_pressure;Samples;Min_cycle;Max_cycle;Signal;HPM_P1;HPM_P2
2021/12/03 00:00:49;;;;;;;5.68;2.45;;;17.40;58.20;;;;;;5072391;28;20112;-76
2021/12/03 00:03:15;;;;;;;5.63;2.13;;;17.40;58.10;;;;;;5072394;28;20021;-76
2021/12/03 00:05:41;;;;;;;6.40;2.03;;;17.40;58.10;;;;;;5072330;28;20020;-76
2021/12/03 00:08:08;;;;;;;7.07;2.17;;;17.40;58.20;;;;;;5073462;28;20081;-75
2021/12/03 00:10:36;;;;;;;8.00;2.33;;;17.40;58.20;;;;;;5073611;28;20480;-75
2021/12/03 00:13:03;;;;;;;5.53;2.47;;;17.40;58.10;;;;;;5092547;28;20028;-76
2021/12/03 00:15:30;;;;;;;5.40;1.95;;;17.40;58.20;;;;;;5072991;28;20052;-75
2021/12/03 00:17:56;;;;;;;4.68;2.00;;;17.30;58.10;;;;;;5074026;28;20423;-75
2021/12/03 00:20:24;;;;;;;6.15;2.50;;;17.40;58.70;;;;;;5092426;28;20020;-76
2021/12/03 00:22:52;;;;;;;5.75;2.10;;;17.30;58.10;;;;;;5092140;28;20036;-76
2021/12/03 00:25:18;;;;;;;3.53;1.77;;;17.30;58.70;;;;;;5072835;28;20027;-76
2021/12/03 00:27:43;;;;;;;6.70;2.63;;;17.30;58.00;;;;;;5053830;28;20423;-75
2021/12/03 00:30:11;;;;;;;5.93;2.50;;;17.30;58.00;;;;;;5072421;28;20058;-75
2021/12/03 00:32:37;;;;;;;5.13;2.05;;;17.30;58.10;;;;;;5072569;28;20103;-75
2021/12/03 00:35:05;;;;;;;6.32;2.35;;;17.30;58.40;;;;;;5053904;28;20021;-75
2021/12/03 00:37:31;;;;;;;4.75;2.38;;;17.30;58.00;;;;;;5071832;28;20024;-75
2021/12/03 00:39:57;;;;;;;5.32;1.92;;;17.30;57.90;;;;;;5086958;28;20023;-76
2021/12/03 00:42:25;;;;;;;5.78;2.58;;;17.30;57.90;;;;;;5083507;28;20062;-76
2021/12/03 00:44:54;;;;;;;5.45;2.30;;;17.20;57.90;;;;;;5071672;28;20081;-76
2021/12/03 00:47:20;;;;;;;4.97;1.88;;;17.20;57.90;;;;;;5071454;28;20515;-76
2021/12/03 00:49:46;;;;;;;6.88;2.03;;;17.20;57.80;;;;;;5071491;28;20052;-76
2021/12/03 00:52:12;;;;;;;4.63;1.80;;;17.20;57.80;;;;;;5071578;28;20043;-77
2021/12/03 00:54:38;;;;;;;5.07;2.05;;;17.20;57.80;;;;;;5084799;28;20028;-76
2021/12/03 00:57:04;;;;;;;7.07;2.28;;;17.20;57.80;;;;;;5091285;28;20032;-76
2021/12/03 00:59:30;;;;;;;5.88;2.20;;;17.20;57.80;;;;;;5091866;28;20028;-76
2021/12/03 01:01:57;;;;;;;4.47;1.58;;;17.20;57.70;;;;;;5091477;28;20493;-75
2021/12/03 01:04:23;;;;;;;7.38;2.58;;;17.20;57.80;;;;;;5091177;28;20024;-75
2021/12/03 01:06:49;;;;;;;7.82;2.08;;;17.20;57.70;;;;;;5091394;28;20031;-76
2021/12/03 01:09:15;;;;;;;5.88;1.80;;;17.20;57.70;;;;;;5081486;28;20048;-76
2021/12/03 01:11:41;;;;;;;7.80;2.47;;;17.20;57.70;;;;;;5071119;28;20037;-76
2021/12/03 01:14:07;;;;;;;8.10;2.03;;;17.20;57.60;;;;;;5071812;28;20020;-76
2021/12/03 01:16:33;;;;;;;6.65;2.35;;;17.20;57.60;;;;;;5072573;28;20381;-75
2021/12/03 01:19:00;;;;;;;7.65;2.30;;;17.10;57.50;;;;;;5091271;28;20024;-75
2021/12/03 01:21:26;;;;;;;5.43;2.05;;;17.10;57.50;;;;;;5091382;28;20032;-75
2021/12/03 01:23:53;;;;;;;7.30;2.33;;;17.10;57.50;;;;;;5084309;28;20465;-76
2021/12/03 01:26:21;;;;;;;4.82;1.77;;;17.10;57.50;;;;;;5071326;28;20123;-75
2021/12/03 01:28:47;;;;;;;6.45;1.88;;;17.10;57.50;;;;;;5071006;28;20062;-76
2021/12/03 01:31:15;;;;;;;5.40;2.08;;;17.10;57.50;;;;;;5071144;28;20044;-76
2021/12/03 01:33:41;;;;;;;6.75;2.20;;;17.10;57.40;;;;;;5070900;28;20388;-76
2021/12/03 01:36:07;;;;;;;7.90;2.33;;;17.10;57.40;;;;;;5071313;28;20547;-76
2021/12/03 01:38:33;;;;;;;5.88;2.20;;;17.10;57.40;;;;;;5057575;28;20040;-76
2021/12/03 01:41:01;;;;;;;4.82;1.85;;;17.10;57.40;;;;;;5090958;28;20032;-76
2021/12/03 01:43:27;;;;;;;5.65;2.00;;;17.10;57.30;;;;;;5091251;28;20084;-76
2021/12/03 01:45:57;;;;;;;4.80;2.08;;;17.10;57.40;;;;;;5072770;28;20110;-76
2021/12/03 01:48:23;;;;;;;4.65;1.88;;;17.10;57.40;;;;;;5091188;28;20035;-76
2021/12/03 01:50:49;;;;;;;7.50;2.00;;;17.00;57.20;;;;;;5090874;28;20020;-76
2021/12/03 01:53:17;;;;;;;6.40;2.05;;;17.10;57.80;;;;;;5071736;28;20055;-76
2021/12/03 01:55:44;;;;;;;6.68;2.53;;;17.00;57.20;;;;;;5070759;28;20043;-76
2021/12/03 01:58:11;;;;;;;5.15;1.88;;;17.10;57.20;;;;;;5070992;28;20027;-77
2021/12/03 02:00:43;;;;;;;5.80;2.10;;;17.00;57.10;;;;;;5053268;28;20458;-76
2021/12/03 02:03:11;;;;;;;8.95;2.20;;;17.00;57.20;;;;;;5071182;28;20025;-76
2021/12/03 02:05:37;;;;;;;7.00;2.50;;;17.00;57.10;;;;;;5071073;28;20090;-76
2021/12/03 02:08:03;;;;;;;5.75;2.33;;;17.00;57.10;;;;;;5070621;28;20060;-76
2021/12/03 02:10:30;;;;;;;6.90;2.15;;;17.00;56.90;;;;;;5090901;28;20369;-76
2021/12/03 02:12:56;;;;;;;5.55;2.58;;;17.00;56.90;;;;;;5093361;28;20029;-76
2021/12/03 02:15:21;;;;;;;5.40;1.92;;;17.00;56.90;;;;;;5094893;28;20378;-76
2021/12/03 02:17:48;;;;;;;6.45;1.70;;;17.00;56.90;;;;;;5094707;28;20419;-76
2021/12/03 02:20:13;;;;;;;5.95;2.33;;;17.00;56.90;;;;;;5076562;28;20032;-76
2021/12/03 02:22:40;;;;;;;7.20;2.00;;;17.00;56.90;;;;;;5095124;28;20028;-76
2021/12/03 02:25:09;;;;;;;6.78;2.70;;;17.00;56.90;;;;;;5093169;28;20024;-76
2021/12/03 02:27:35;;;;;;;7.97;2.53;;;17.00;57.10;;;;;;5078211;28;20101;-76
2021/12/03 02:30:03;;;;;;;6.78;2.33;;;17.00;57.00;;;;;;5074148;28;20480;-76
2021/12/03 02:32:28;;;;;;;5.03;1.83;;;17.00;56.90;;;;;;5074285;28;20040;-76
2021/12/03 02:34:54;;;;;;;6.20;2.65;;;17.00;56.80;;;;;;5074049;28;20021;-76
2021/12/03 02:37:20;;;;;;;5.57;1.85;;;17.00;56.90;;;;;;5075041;28;20613;-76
2021/12/03 02:39:45;;;;;;;5.72;2.15;;;17.00;56.90;;;;;;5080550;28;20028;-76
2021/12/03 02:42:11;;;;;;;6.18;2.50;;;16.90;56.80;;;;;;5074115;28;20036;-75
2021/12/03 02:44:37;;;;;;;5.75;2.20;;;17.00;57.00;;;;;;5074350;28;20404;-76
2021/12/03 02:47:04;;;;;;;6.95;2.03;;;16.90;56.70;;;;;;5073689;28;20591;-76
2021/12/03 02:49:30;;;;;;;4.40;1.52;;;16.90;56.70;;;;;;5073948;28;20032;-75
2021/12/03 02:51:55;;;;;;;5.22;1.80;;;17.00;56.90;;;;;;5073841;28;20028;-76
2021/12/03 02:54:21;;;;;;;5.75;2.42;;;17.00;56.80;;;;;;5080249;28;20044;-76
2021/12/03 02:56:47;;;;;;;6.78;2.22;;;17.00;56.70;;;;;;5073556;28;20393;-75
2021/12/03 02:59:12;;;;;;;6.47;1.92;;;16.90;56.70;;;;;;5073861;28;20028;-76
2021/12/03 03:01:38;;;;;;;4.00;1.90;;;16.90;56.60;;;;;;5073958;28;20389;-75
2021/12/03 03:04:04;;;;;;;7.28;1.80;;;16.90;56.70;;;;;;5073452;28;20035;-75
2021/12/03 03:06:30;;;;;;;3.60;1.42;;;16.90;56.50;;;;;;5073776;28;20024;-75
2021/12/03 03:08:56;;;;;;;5.28;1.85;;;16.90;56.60;;;;;;5079342;28;20512;-76
2021/12/03 03:11:23;;;;;;;6.90;1.98;;;16.90;56.70;;;;;;5093921;28;20147;-75
2021/12/03 03:13:49;;;;;;;5.30;1.70;;;16.90;56.80;;;;;;5093457;28;20024;-76
2021/12/03 03:16:16;;;;;;;5.15;2.00;;;16.90;57.10;;;;;;5093754;28;20024;-76
2021/12/03 03:18:42;;;;;;;6.20;1.92;;;16.90;56.50;;;;;;5093454;28;20380;-76
2021/12/03 03:21:07;;;;;;;5.22;1.95;;;16.90;56.60;;;;;;5093822;28;20036;-76
2021/12/03 03:23:34;;;;;;;5.00;1.77;;;16.90;56.60;;;;;;5090303;28;20036;-76
2021/12/03 03:26:00;;;;;;;8.05;2.50;;;16.90;56.40;;;;;;5073120;28;20405;-75
2021/12/03 03:28:26;;;;;;;5.82;2.17;;;16.90;56.40;;;;;;5073262;28;20020;-75
2021/12/03 03:30:55;;;;;;;5.50;1.73;;;16.90;56.50;;;;;;5073149;28;20016;-76
2021/12/03 03:33:21;;;;;;;6.22;1.67;;;16.90;56.30;;;;;;5073255;28;20017;-76
2021/12/03 03:35:47;;;;;;;5.18;1.75;;;16.90;56.30;;;;;;5072916;28;20067;-76
2021/12/03 03:38:13;;;;;;;10.05;1.92;;;16.90;56.20;;;;;;5082881;28;20438;-76
2021/12/03 03:40:41;;;;;;;5.95;2.00;;;16.90;56.20;;;;;;5055094;28;20043;-76
2021/12/03 03:43:07;;;;;;;4.25;1.70;;;16.90;56.20;;;;;;5073350;28;20112;-76
2021/12/03 03:45:34;;;;;;;4.28;1.73;;;16.90;56.10;;;;;;5072988;28;20025;-76
2021/12/03 03:48:00;;;;;;;6.60;2.47;;;16.90;56.10;;;;;;5072338;28;20036;-76
2021/12/03 03:50:26;;;;;;;5.95;2.20;;;16.90;56.00;;;;;;5055168;28;20417;-76
2021/12/03 03:52:54;;;;;;;9.15;2.50;;;16.90;55.90;;;;;;5072694;28;20082;-76
2021/12/03 03:55:20;;;;;;;6.53;2.25;;;16.90;55.90;;;;;;5072959;28;20032;-76
2021/12/03 03:57:48;;;;;;;4.90;2.20;;;16.90;55.90;;;;;;5054614;28;20521;-76
2021/12/03 04:00:17;;;;;;;5.60;1.77;;;16.80;55.90;;;;;;5072559;28;20021;-76
2021/12/03 04:02:44;;;;;;;5.25;1.80;;;16.90;56.00;;;;;;5072172;28;20046;-76
2021/12/03 04:05:10;;;;;;;6.50;2.10;;;16.80;55.90;;;;;;5072753;28;20017;-75
2021/12/03 04:07:37;;;;;;;6.35;2.20;;;16.90;55.90;;;;;;5072914;28;20103;-76
2021/12/03 04:10:05;;;;;;;5.68;1.90;;;16.80;55.80;;;;;;5087160;28;20035;-76
2021/12/03 04:12:31;;;;;;;5.72;1.73;;;16.90;55.90;;;;;;5092687;28;20021;-75
2021/12/03 04:14:57;;;;;;;5.85;1.83;;;16.80;55.90;;;;;;5074164;28;20031;-76
2021/12/03 04:17:23;;;;;;;5.88;2.35;;;16.80;55.80;;;;;;5092651;28;20028;-75
2021/12/03 04:19:48;;;;;;;6.28;2.08;;;16.80;55.80;;;;;;5074295;28;20410;-75
2021/12/03 04:22:17;;;;;;;4.78;1.77;;;16.80;55.80;;;;;;5068453;28;20036;-75
2021/12/03 04:24:43;;;;;;;7.25;2.00;;;16.80;55.70;;;;;;5080780;28;20020;-76
2021/12/03 04:27:08;;;;;;;6.53;2.17;;;16.90;55.70;;;;;;5072438;28;20111;-76
2021/12/03 04:29:34;;;;;;;5.72;2.17;;;16.90;55.70;;;;;;5071833;28;20388;-76
2021/12/03 04:32:00;;;;;;;7.57;2.35;;;16.80;55.70;;;;;;5071614;28;20595;-76
2021/12/03 04:34:25;;;;;;;4.72;2.20;;;16.80;55.50;;;;;;5071858;28;20031;-76
2021/12/03 04:36:51;;;;;;;6.68;1.98;;;16.80;55.50;;;;;;5053625;28;20480;-76
2021/12/03 04:39:17;;;;;;;5.68;1.98;;;16.80;55.50;;;;;;5071914;28;20021;-76
2021/12/03 04:41:43;;;;;;;7.10;1.98;;;16.80;55.50;;;;;;5071490;28;20068;-76
2021/12/03 04:44:09;;;;;;;7.00;2.15;;;16.80;55.40;;;;;;5071962;28;20013;-76
2021/12/03 04:46:35;;;;;;;6.57;2.45;;;16.80;55.40;;;;;;5071319;28;20036;-76
2021/12/03 04:49:03;;;;;;;5.70;1.77;;;16.80;55.30;;;;;;5071642;28;20033;-76
2021/12/03 04:51:28;;;;;;;4.70;1.75;;;16.70;55.30;;;;;;5053816;28;20365;-76
2021/12/03 04:53:54;;;;;;;7.10;2.00;;;16.80;55.40;;;;;;5078414;28;20530;-75
2021/12/03 04:56:20;;;;;;;5.00;1.95;;;16.70;55.30;;;;;;5071734;28;20078;-76
2021/12/03 04:58:45;;;;;;;5.65;2.00;;;16.80;55.40;;;;;;5071297;28;20028;-76
2021/12/03 05:01:11;;;;;;;6.47;2.35;;;16.70;55.30;;;;;;5071365;28;20439;-76
2021/12/03 05:03:37;;;;;;;5.43;1.90;;;16.70;55.30;;;;;;5071297;28;20024;-76
2021/12/03 05:06:07;;;;;;;7.43;2.22;;;16.80;55.30;;;;;;5071436;28;20366;-76
2021/12/03 05:08:33;;;;;;;6.15;2.38;;;16.80;55.30;;;;;;5057897;28;20381;-76
2021/12/03 05:10:59;;;;;;;6.00;2.20;;;16.70;55.20;;;;;;5071319;28;20104;-76
2021/12/03 05:13:27;;;;;;;6.65;2.15;;;16.80;55.30;;;;;;5071383;28;20075;-76
2021/12/03 05:15:54;;;;;;;7.55;2.50;;;16.70;55.20;;;;;;5071347;28;20420;-76
2021/12/03 05:18:22;;;;;;;6.75;2.33;;;16.80;55.20;;;;;;5071215;28;20030;-76
2021/12/03 05:20:50;;;;;;;4.03;1.70;;;16.70;55.20;;;;;;5070746;28;20024;-75
2021/12/03 05:23:17;;;;;;;6.68;2.28;;;16.70;55.10;;;;;;5071043;28;20062;-76
2021/12/03 05:25:43;;;;;;;5.07;2.13;;;16.70;55.10;;;;;;5090386;28;20028;-76
2021/12/03 05:28:10;;;;;;;5.28;1.95;;;16.80;55.20;;;;;;5091568;28;20035;-76
2021/12/03 05:30:37;;;;;;;8.38;1.92;;;16.70;55.10;;;;;;5091039;28;20046;-77
2021/12/03 05:33:04;;;;;;;8.15;2.25;;;16.70;55.10;;;;;;5091289;28;20036;-76
2021/12/03 05:35:30;;;;;;;6.25;1.98;;;16.70;55.10;;;;;;5090751;28;20048;-76
2021/12/03 05:37:56;;;;;;;3.88;1.83;;;16.70;55.10;;;;;;5079504;28;20032;-76
2021/12/03 05:40:22;;;;;;;7.85;2.35;;;16.70;55.00;;;;;;5087378;28;20038;-76
2021/12/03 05:42:48;;;;;;;5.55;1.83;;;16.70;55.00;;;;;;5091039;28;20106;-77
2021/12/03 05:45:18;;;;;;;6.60;1.90;;;16.70;55.00;;;;;;5093444;28;20038;-76
2021/12/03 05:47:44;;;;;;;6.15;2.30;;;16.70;55.10;;;;;;5095040;28;20032;-75
2021/12/03 05:50:12;;;;;;;6.75;2.05;;;16.70;55.10;;;;;;5093735;28;20077;-75
2021/12/03 05:52:38;;;;;;;7.50;2.00;;;16.70;55.10;;;;;;5095210;28;20019;-75
2021/12/03 05:55:05;;;;;;;5.63;2.15;;;16.70;55.10;;;;;;5062551;28;20028;-76
2021/12/03 05:57:31;;;;;;;6.38;2.05;;;16.70;55.20;;;;;;5074437;28;20052;-76
2021/12/03 05:59:56;;;;;;;6.22;1.70;;;16.70;55.20;;;;;;5075566;28;20055;-76
2021/12/03 06:02:22;;;;;;;6.47;2.22;;;16.70;55.20;;;;;;5074913;28;20036;-76
2021/12/03 06:04:49;;;;;;;8.07;1.67;;;16.70;55.10;;;;;;5074512;28;20025;-76
2021/12/03 06:07:15;;;;;;;5.13;1.90;;;16.70;55.10;;;;;;5074794;28;20499;-76
2021/12/03 06:09:42;;;;;;;8.05;1.73;;;16.80;55.10;;;;;;5085257;28;20024;-76
2021/12/03 06:12:08;;;;;;;4.68;1.70;;;16.80;55.10;;;;;;5093133;28;20024;-76
2021/12/03 06:14:34;;;;;;;6.47;2.00;;;16.80;55.10;;;;;;5094641;28;20031;-75
2021/12/03 06:17:00;;;;;;;6.60;2.28;;;16.80;55.10;;;;;;5094844;28;20440;-76
2021/12/03 06:19:26;;;;;;;7.25;2.00;;;16.80;55.70;;;;;;5094839;28;20389;-75
2021/12/03 06:21:52;;;;;;;3.70;1.98;;;16.80;55.70;;;;;;5093071;28;20063;-75
2021/12/03 06:24:17;;;;;;;6.40;1.70;;;16.80;55.60;;;;;;5063602;28;20066;-76
2021/12/03 06:26:43;;;;;;;6.72;1.92;;;16.80;55.40;;;;;;5094670;28;20031;-75
2021/12/03 06:29:09;;;;;;;5.78;2.28;;;16.80;55.60;;;;;;5094667;28;20099;-75
2021/12/03 06:31:34;;;;;;;6.00;1.92;;;16.90;55.70;;;;;;5094395;28;20039;-75
2021/12/03 06:34:00;;;;;;;5.78;2.00;;;16.80;55.70;;;;;;5092489;28;20032;-75
2021/12/03 06:36:26;;;;;;;7.57;2.17;;;16.90;55.70;;;;;;5094582;28;20154;-75
2021/12/03 06:38:52;;;;;;;6.43;1.83;;;16.90;55.70;;;;;;5090088;28;20473;-75
2021/12/03 06:41:18;;;;;;;6.15;2.15;;;16.90;55.70;;;;;;5073967;28;20378;-76
2021/12/03 06:43:43;;;;;;;5.97;1.98;;;16.90;55.50;;;;;;5074089;28;20035;-76
2021/12/03 06:46:09;;;;;;;5.45;1.67;;;16.90;55.40;;;;;;5073953;28;20048;-76
2021/12/03 06:48:35;;;;;;;6.20;2.10;;;16.90;55.50;;;;;;5073791;28;20046;-75
2021/12/03 06:51:02;;;;;;;5.35;1.60;;;16.90;55.40;;;;;;5073989;28;20024;-76
2021/12/03 06:53:38;;;;;;;5.88;2.17;;;16.90;55.10;;;;;;5073894;28;20021;-76
2021/12/03 06:56:08;;;;;;;6.50;2.10;;;17.00;55.10;;;;;;5081405;28;20029;-76
2021/12/03 06:58:34;;;;;;;6.30;2.45;;;17.00;55.00;;;;;;5073504;28;20017;-75
2021/12/03 07:00:59;;;;;;;6.50;1.77;;;17.00;55.00;;;;;;5087082;28;20032;-75
2021/12/03 07:03:25;;;;;;;4.63;1.42;;;17.00;55.00;;;;;;5074793;28;20107;-76
2021/12/03 07:05:51;;;;;;;7.10;1.52;;;17.00;55.00;;;;;;5088793;28;20476;-75
2021/12/03 07:08:17;;;;;;;7.85;1.77;;;17.00;55.00;;;;;;5088774;28;20025;-75
2021/12/03 07:10:43;;;;;;;4.95;1.45;;;17.00;55.00;;;;;;5081454;28;20514;-75
2021/12/03 07:13:08;;;;;;;4.75;1.85;;;17.00;55.00;;;;;;5074488;28;20020;-76
2021/12/03 07:15:34;;;;;;;5.38;1.73;;;17.00;55.00;;;;;;5073950;28;20033;-77
2021/12/03 07:18:00;;;;;;;5.22;1.60;;;17.00;55.00;;;;;;5057522;28;20622;-76
2021/12/03 07:20:26;;;;;;;5.72;2.20;;;17.00;55.00;;;;;;5071224;28;20546;-76
2021/12/03 07:22:53;;;;;;;4.55;1.40;;;17.10;55.00;;;;;;5073096;28;20042;-75
2021/12/03 07:25:19;;;;;;;4.20;2.00;;;17.10;55.10;;;;;;5073485;28;20059;-75
2021/12/03 07:27:45;;;;;;;6.50;1.77;;;17.10;55.00;;;;;;5073420;28;20039;-75
2021/12/03 07:30:13;;;;;;;8.93;2.15;;;17.00;55.50;;;;;;5073232;28;20020;-76
2021/12/03 07:32:39;;;;;;;5.85;2.10;;;17.10;54.90;;;;;;5073041;28;20027;-76
2021/12/03 07:35:06;;;;;;;4.97;1.30;;;17.10;55.30;;;;;;5073230;28;20523;-75
2021/12/03 07:37:32;;;;;;;5.50;2.05;;;17.00;55.30;;;;;;5072775;28;20029;-76
2021/12/03 07:40:04;;;;;;;4.55;1.42;;;17.00;55.30;;;;;;5084973;28;20038;-76
2021/12/03 07:42:31;;;;;;;4.72;1.50;;;17.00;55.30;;;;;;5092971;28;20506;-76
2021/12/03 07:44:56;;;;;;;5.50;1.65;;;17.00;55.40;;;;;;5090652;28;20073;-77
2021/12/03 07:47:22;;;;;;;4.60;1.70;;;17.00;55.20;;;;;;5082422;28;20032;-77
2021/12/03 20:00:52;;;;;;;1.52;0.63;;;19.70;54.70;;;;;;5118639;27;20120;-82
2021/12/03 20:03:18;;;;;;;1.30;0.60;;;19.70;55.10;;;;;;5095565;28;20020;-81
2021/12/03 20:05:44;;;;;;;1.25;0.60;;;19.70;55.20;;;;;;5108798;28;20071;-82
2021/12/03 20:08:09;;;;;;;1.88;0.90;;;19.70;55.10;;;;;;5109053;28;20468;-82
2021/12/03 20:10:46;;;;;;;2.33;0.60;;;19.70;55.00;;;;;;5108672;28;20077;-81
2021/12/03 20:13:12;;;;;;;1.08;0.60;;;19.70;54.90;;;;;;5101603;28;20040;-80
2021/12/03 20:18:19;;;;;;;5.55;0.90;;;19.60;55.50;;;;;;5106687;28;20023;-82
2021/12/03 20:20:46;;;;;;;2.22;0.52;;;19.50;55.60;;;;;;5097824;28;20090;-80
2021/12/03 20:23:39;;;;;;;1.65;0.63;;;19.40;55.80;;;;;;5098013;28;20069;-80
2021/12/03 20:31:17;;;;;;;1.52;0.77;;;19.30;56.70;;;;;;5096265;28;20381;-80
2021/12/03 20:36:44;;;;;;;1.40;0.77;;;19.20;56.60;;;;;;5096377;28;20020;-81
2021/12/03 20:39:14;;;;;;;1.65;0.77;;;19.20;56.80;;;;;;5098828;28;20052;-80
2021/12/03 20:41:52;;;;;;;2.00;0.97;;;19.10;56.70;;;;;;5078175;28;20031;-81
2021/12/03 20:54:37;;;;;;;1.33;0.77;;;18.90;56.40;;;;;;5096954;28;20030;-81
2021/12/03 21:10:22;;;;;;;1.17;0.70;;;18.60;56.20;;;;;;5104818;28;20425;-82
2021/12/03 21:12:50;;;;;;;1.55;0.70;;;18.60;56.10;;;;;;5075840;28;20025;-82
2021/12/03 21:15:32;;;;;;;1.63;0.93;;;18.50;56.00;;;;;;5094157;28;20491;-82
2021/12/03 21:20:46;;;;;;;2.35;0.73;;;18.40;56.20;;;;;;5082614;28;20029;-81
2021/12/03 21:23:12;;;;;;;5.28;1.55;;;18.40;57.00;;;;;;5086351;28;20031;-83
2021/12/03 21:25:38;;;;;;;3.00;1.10;;;18.40;59.10;;;;;;5088338;28;20035;-82
2021/12/03 21:30:56;;;;;;;2.30;0.88;;;18.30;58.10;;;;;;5084369;28;20028;-82
2021/12/03 21:39:05;;;;;;;1.92;0.80;;;18.20;57.90;;;;;;5083955;28;20409;-81
2021/12/03 21:41:31;;;;;;;1.40;0.75;;;18.20;57.90;;;;;;5081913;28;20024;-81
2021/12/03 21:44:04;;;;;;;2.05;0.73;;;18.10;57.80;;;;;;5081599;28;20062;-82
2021/12/03 21:46:32;;;;;;;5.45;0.90;;;18.10;57.90;;;;;;5082700;28;20028;-81
2021/12/03 21:48:59;;;;;;;1.60;0.70;;;18.00;57.90;;;;;;5064002;28;20031;-81
2021/12/03 21:51:25;;;;;;;2.40;0.70;;;18.10;57.90;;;;;;5083180;28;20122;-82
2021/12/03 21:53:53;;;;;;;1.27;0.80;;;18.00;57.90;;;;;;5080566;28;20058;-82
2021/12/03 21:56:21;;;;;;;1.67;0.73;;;18.00;57.90;;;;;;5081884;28;20024;-82
2021/12/03 21:58:50;;;;;;;2.53;0.75;;;18.00;57.90;;;;;;5077380;28;20087;-83
2021/12/03 22:01:16;;;;;;;2.15;0.80;;;17.90;57.80;;;;;;5083551;28;20028;-82
2021/12/03 22:03:41;;;;;;;0.80;0.73;;;17.90;57.90;;;;;;5091750;28;20544;-82
2021/12/03 22:06:07;;;;;;;1.70;0.63;;;17.90;58.00;;;;;;5092657;28;20028;-83
2021/12/03 22:08:33;;;;;;;1.40;0.60;;;17.80;58.00;;;;;;5093017;28;20024;-82
2021/12/03 22:10:59;;;;;;;1.20;0.80;;;17.80;58.00;;;;;;5093408;28;20415;-82
2021/12/03 22:13:25;;;;;;;0.85;0.60;;;17.80;58.00;;;;;;5075190;28;20024;-82
2021/12/03 22:15:52;;;;;;;1.05;0.52;;;17.70;57.90;;;;;;5092355;28;20020;-83
2021/12/03 22:18:21;;;;;;;1.50;0.90;;;17.70;58.00;;;;;;5075557;28;20056;-81
2021/12/03 22:20:47;;;;;;;1.25;0.60;;;17.70;58.00;;;;;;5092262;28;20059;-82
2021/12/03 22:23:13;;;;;;;1.10;0.60;;;17.70;58.10;;;;;;5072881;28;20028;-82
2021/12/03 22:25:39;;;;;;;1.15;0.50;;;17.60;58.10;;;;;;5092430;28;20026;-81
2021/12/03 22:28:05;;;;;;;0.90;0.57;;;17.60;58.20;;;;;;5074536;28;20024;-82
2021/12/03 22:30:31;;;;;;;1.38;0.70;;;17.60;58.30;;;;;;5092000;28;20024;-83
2021/12/03 22:32:57;;;;;;;1.10;0.60;;;17.50;58.30;;;;;;5092980;28;20551;-82
2021/12/03 22:35:23;;;;;;;2.20;0.65;;;17.50;58.30;;;;;;5074355;28;20122;-82
2021/12/03 22:37:48;;;;;;;2.22;0.80;;;17.50;58.40;;;;;;5092238;28;20477;-82
2021/12/03 22:40:14;;;;;;;0.70;0.50;;;17.40;58.50;;;;;;5092382;28;20101;-82
2021/12/03 22:42:41;;;;;;;1.17;0.70;;;17.40;58.50;;;;;;5092173;28;20135;-82
2021/12/03 22:45:09;;;;;;;0.80;0.50;;;17.30;58.50;;;;;;5091692;28;20064;-81
2021/12/03 22:47:36;;;;;;;1.42;0.80;;;17.30;58.60;;;;;;5073229;28;20024;-81
2021/12/03 22:52:40;;;;;;;0.90;0.50;;;17.30;58.70;;;;;;5092128;28;20028;-82
2021/12/03 22:55:07;;;;;;;0.55;0.47;;;17.20;58.80;;;;;;5092194;28;20024;-81
2021/12/03 22:57:33;;;;;;;1.42;0.60;;;17.20;58.80;;;;;;5092163;28;20039;-81
2021/12/03 22:59:59;;;;;;;1.10;0.57;;;17.20;58.80;;;;;;5092259;28;20488;-81
2021/12/03 23:02:24;;;;;;;0.80;0.50;;;17.20;58.80;;;;;;5092452;28;20020;-82
2021/12/03 23:04:50;;;;;;;1.17;0.60;;;17.20;58.80;;;;;;5091458;28;20028;-82
2021/12/03 23:07:17;;;;;;;0.45;0.40;;;17.20;58.80;;;;;;5092011;28;20021;-81
2021/12/03 23:09:43;;;;;;;1.67;0.60;;;17.10;58.90;;;;;;5092175;28;20039;-81
2021/12/03 23:12:11;;;;;;;2.55;0.70;;;17.10;59.00;;;;;;5092298;28;20073;-81
2021/12/03 23:14:39;;;;;;;1.00;0.52;;;17.10;59.10;;;;;;5091713;28;20024;-82
2021/12/03 23:17:05;;;;;;;1.58;0.65;;;17.10;59.10;;;;;;5092723;28;20082;-82
2021/12/03 23:19:30;;;;;;;1.52;0.70;;;17.10;59.10;;;;;;5091676;28;20032;-82
2021/12/03 23:21:58;;;;;;;0.77;0.50;;;17.10;59.20;;;;;;5092414;28;20383;-82
2021/12/03 23:24:23;;;;;;;1.80;0.77;;;17.00;59.20;;;;;;5091801;28;20022;-82
2021/12/03 23:26:49;;;;;;;1.20;0.52;;;17.00;59.30;;;;;;5073257;28;20031;-82
2021/12/03 23:29:16;;;;;;;1.42;0.68;;;17.00;59.30;;;;;;5091864;28;20016;-81
2021/12/03 23:31:44;;;;;;;2.58;0.55;;;17.00;59.40;;;;;;5090633;28;20486;-76
2021/12/03 23:34:13;;;;;;;1.58;0.52;;;;;;;;;;5072470;28;20381;-82
2021/12/03 23:36:40;;;;;;;0.45;0.40;;;;;;;;;;5091493;28;20441;-79
2021/12/03 23:39:06;;;;;;;1.55;0.60;;;;;;;;;;5090770;28;20118;-82
2021/12/03 23:41:32;;;;;;;1.10;0.60;;;;;;;;;;5090002;28;20050;-82
2021/12/03 23:43:58;;;;;;;2.45;0.68;;;;;;;;;;5073103;28;20031;-82
2021/12/03 23:46:24;;;;;;;1.38;0.70;;;;;;;;;;5090944;28;20059;-82
2021/12/03 23:48:51;;;;;;;0.88;0.40;;;;;;;;;;5089180;28;20031;-82
2021/12/03 23:51:19;;;;;;;0.80;0.50;;;;;;;;;;5089113;28;20495;-83
2021/12/03 23:53:45;;;;;;;1.65;0.47;;;;;;;;;;5087817;28;20031;-82
2021/12/03 23:56:11;;;;;;;1.55;0.70;;;;;;;;;;5090423;28;20035;-82
2021/12/03 23:58:39;;;;;;;1.73;0.50;;;;;;;;;;5090943;28;20026;-82
